createdAt,value
2017-08-21T00:00:09.705Z,96.40
2017-08-21T00:02:35.797Z,96.40
2017-08-21T00:05:01.875Z,96.60
2017-08-21T00:07:27.921Z,96.70
2017-08-21T00:09:54.012Z,96.70
2017-08-21T00:12:20.058Z,96.90
2017-08-21T00:14:46.073Z,97.00
2017-08-21T00:17:12.110Z,96.90
2017-08-21T00:19:38.146Z,97.10
2017-08-21T00:22:04.191Z,96.90
2017-08-21T00:24:30.225Z,96.80
2017-08-21T00:26:56.265Z,96.90
2017-08-21T00:29:22.306Z,97.00
2017-08-21T00:31:48.388Z,97.00
2017-08-21T00:34:14.457Z,97.10
2017-08-21T00:36:40.558Z,97.10
2017-08-21T00:39:06.625Z,97.10
2017-08-21T00:41:32.681Z,97.10
2017-08-21T00:43:58.749Z,97.20
2017-08-21T00:46:24.803Z,97.20
2017-08-21T00:48:50.841Z,97.30
2017-08-21T00:51:16.897Z,97.20
2017-08-21T00:56:41.973Z,97.30
2017-08-21T00:59:08.013Z,97.30
2017-08-21T01:01:34.047Z,97.30
2017-08-21T01:04:00.103Z,97.20
2017-08-21T01:06:26.141Z,97.20
2017-08-21T01:08:52.182Z,97.30
2017-08-21T01:11:18.240Z,97.20
2017-08-21T01:13:44.289Z,97.30
2017-08-21T01:16:10.344Z,97.20
2017-08-21T01:18:36.404Z,97.20
2017-08-21T01:21:02.469Z,97.20
2017-08-21T01:23:28.503Z,97.20
2017-08-21T01:25:54.567Z,97.40
2017-08-21T01:28:20.648Z,97.30
2017-08-21T01:30:46.695Z,97.20
2017-08-21T01:33:12.728Z,97.00
2017-08-21T01:35:39.253Z,96.90
2017-08-21T01:38:05.400Z,96.90
2017-08-21T01:40:31.432Z,96.80
2017-08-21T01:42:57.501Z,96.80
2017-08-21T01:45:23.549Z,97.00
2017-08-21T01:47:49.573Z,96.90
2017-08-21T01:50:15.592Z,96.90
2017-08-21T01:52:41.621Z,97.00
2017-08-21T01:55:07.665Z,97.10
2017-08-21T01:57:33.693Z,97.10
2017-08-21T01:59:59.717Z,97.20
2017-08-21T02:02:25.760Z,97.50
2017-08-21T02:04:51.789Z,97.20
2017-08-21T02:07:17.846Z,96.90
2017-08-21T02:09:43.873Z,97.00
2017-08-21T02:12:09.904Z,96.80
2017-08-21T02:14:35.937Z,96.80
2017-08-21T02:17:01.952Z,96.80
2017-08-21T02:19:27.996Z,96.80
2017-08-21T02:21:54.027Z,97.10
2017-08-21T02:24:20.069Z,96.80
2017-08-21T02:26:46.094Z,96.80
2017-08-21T02:29:12.156Z,96.80
2017-08-21T02:31:38.193Z,96.90
2017-08-21T02:34:04.221Z,96.90
2017-08-21T02:36:30.273Z,97.00
2017-08-21T02:38:56.361Z,97.00
2017-08-21T02:41:22.395Z,97.20
2017-08-21T02:43:48.416Z,97.30
2017-08-21T02:46:14.462Z,97.20
2017-08-21T02:48:40.494Z,97.20
2017-08-21T02:51:06.515Z,97.20
2017-08-21T02:53:32.549Z,97.10
2017-08-21T02:55:58.605Z,96.90
2017-08-21T02:58:24.646Z,96.90
2017-08-21T03:00:50.685Z,97.00
2017-08-21T03:03:16.719Z,97.10
2017-08-21T03:05:42.756Z,97.00
2017-08-21T03:08:08.796Z,97.00
2017-08-21T03:10:34.828Z,97.00
2017-08-21T03:13:00.860Z,96.80
2017-08-21T03:15:26.908Z,96.90
2017-08-21T03:17:52.956Z,96.90
2017-08-21T03:20:18.998Z,96.70
2017-08-21T03:22:45.034Z,96.70
2017-08-21T03:25:11.106Z,96.50
2017-08-21T03:27:37.237Z,96.60
2017-08-21T03:30:03.279Z,96.60
2017-08-21T03:32:29.337Z,96.90
2017-08-21T03:34:55.361Z,96.70
2017-08-21T03:37:21.389Z,96.70
2017-08-21T03:39:47.401Z,96.80
2017-08-21T03:42:13.416Z,96.60
2017-08-21T03:44:39.439Z,96.70
2017-08-21T03:47:05.468Z,96.60
2017-08-21T03:49:31.513Z,96.80
2017-08-21T03:51:57.533Z,96.70
2017-08-21T03:54:23.577Z,96.80
2017-08-21T03:56:49.604Z,96.90
2017-08-21T03:59:15.646Z,97.00
2017-08-21T04:01:41.692Z,97.00
2017-08-21T04:04:07.726Z,97.10
2017-08-21T04:06:33.751Z,97.10
2017-08-21T04:08:59.810Z,97.10
2017-08-21T04:11:25.868Z,97.00
2017-08-21T04:13:51.888Z,97.00
2017-08-21T04:16:17.937Z,97.00
2017-08-21T04:18:43.969Z,97.00
2017-08-21T04:21:10.008Z,97.00
2017-08-21T04:23:36.025Z,96.90
2017-08-21T04:26:02.049Z,96.80
2017-08-21T04:28:28.075Z,96.80
2017-08-21T04:30:54.109Z,97.00
2017-08-21T04:33:20.132Z,97.10
2017-08-21T04:35:46.181Z,96.80
2017-08-21T04:38:12.220Z,96.80
2017-08-21T04:40:38.274Z,96.60
2017-08-21T04:43:04.298Z,96.60
2017-08-21T04:45:30.385Z,96.60
2017-08-21T04:47:56.453Z,96.60
2017-08-21T04:50:22.492Z,96.60
2017-08-21T04:52:48.513Z,96.70
2017-08-21T04:55:14.553Z,97.00
2017-08-21T04:57:40.596Z,96.70
2017-08-21T05:00:06.621Z,96.50
2017-08-21T05:02:32.681Z,96.50
2017-08-21T05:04:58.717Z,96.60
2017-08-21T05:07:24.750Z,96.50
2017-08-21T05:09:50.781Z,96.40
2017-08-21T05:12:16.821Z,96.30
2017-08-21T05:14:42.856Z,96.30
2017-08-21T05:17:08.892Z,96.10
2017-08-21T05:19:34.928Z,96.00
2017-08-21T05:22:00.965Z,95.90
2017-08-21T05:24:27.017Z,96.00
2017-08-21T05:26:53.061Z,96.00
2017-08-21T05:29:19.081Z,96.10
2017-08-21T05:31:45.197Z,96.00
2017-08-21T05:34:11.241Z,96.20
2017-08-21T05:36:37.257Z,95.70
2017-08-21T05:39:03.293Z,95.80
2017-08-21T05:41:29.357Z,95.80
2017-08-21T05:43:55.408Z,95.80
2017-08-21T05:46:21.445Z,95.60
2017-08-21T05:48:47.474Z,95.70
2017-08-21T05:51:13.497Z,95.80
2017-08-21T05:53:39.533Z,95.60
2017-08-21T05:56:05.552Z,95.50
2017-08-21T05:58:31.582Z,95.70
2017-08-21T06:00:57.613Z,95.70
2017-08-21T06:03:23.653Z,95.30
2017-08-21T06:05:49.672Z,95.10
2017-08-21T06:08:15.717Z,95.40
2017-08-21T06:10:41.738Z,95.00
2017-08-21T06:13:07.753Z,95.50
2017-08-21T06:15:33.796Z,95.50
2017-08-21T06:17:59.843Z,95.50
2017-08-21T06:20:25.926Z,95.40
2017-08-21T06:22:51.962Z,94.90
2017-08-21T06:25:17.990Z,94.90
2017-08-21T06:27:44.005Z,95.30
2017-08-21T06:30:10.021Z,94.80
2017-08-21T06:32:36.056Z,94.90
2017-08-21T06:35:02.102Z,94.80
2017-08-21T06:37:28.129Z,94.60
2017-08-21T06:39:54.175Z,94.30
2017-08-21T06:42:20.213Z,94.20
2017-08-21T06:44:46.224Z,93.70
2017-08-21T06:47:12.259Z,93.80
2017-08-21T06:49:38.278Z,93.70
2017-08-21T06:52:04.304Z,93.30
2017-08-21T06:54:30.337Z,93.50
2017-08-21T06:56:56.369Z,93.50
2017-08-21T06:59:22.385Z,93.20
2017-08-21T07:01:48.401Z,93.40
2017-08-21T07:04:14.417Z,92.80
2017-08-21T07:06:40.432Z,92.50
2017-08-21T07:09:06.453Z,92.10
2017-08-21T07:11:32.465Z,92.20
2017-08-21T07:13:58.497Z,91.70
2017-08-21T07:16:24.531Z,91.30
2017-08-21T07:18:50.564Z,92.00
2017-08-21T07:21:16.581Z,91.10
2017-08-21T07:23:42.605Z,91.00
2017-08-21T07:26:08.636Z,90.90
2017-08-21T07:28:34.684Z,90.10
2017-08-21T07:31:01.459Z,90.00
2017-08-21T07:33:27.499Z,90.00
2017-08-21T07:35:53.516Z,89.00
2017-08-21T07:38:19.537Z,89.00
2017-08-21T07:40:45.557Z,88.90
2017-08-21T07:43:11.581Z,90.00
2017-08-21T07:45:37.600Z,88.70
2017-08-21T07:48:03.617Z,88.70
2017-08-21T07:50:29.638Z,86.40
2017-08-21T07:52:55.724Z,85.10
2017-08-21T07:55:21.753Z,85.30
2017-08-21T07:57:47.780Z,87.30
2017-08-21T08:00:13.800Z,85.10
2017-08-21T08:02:39.829Z,83.90
2017-08-21T08:05:05.852Z,83.90
2017-08-21T08:07:31.909Z,84.10
2017-08-21T08:09:57.941Z,83.80
2017-08-21T08:12:23.972Z,83.20
2017-08-21T08:14:50.011Z,84.50
2017-08-21T08:17:16.037Z,84.60
2017-08-21T08:19:42.064Z,86.10
2017-08-21T08:22:08.081Z,86.30
2017-08-21T08:24:34.128Z,87.20
2017-08-21T08:27:00.169Z,88.30
2017-08-21T08:29:26.202Z,86.80
2017-08-21T08:31:59.296Z,86.30
2017-08-21T08:34:25.322Z,86.40
2017-08-21T08:36:51.349Z,90.00
2017-08-21T08:39:17.368Z,91.00
2017-08-21T08:41:43.409Z,91.90
2017-08-21T08:44:09.442Z,92.10
2017-08-21T08:46:35.478Z,92.80
2017-08-21T08:49:01.510Z,92.00
2017-08-21T08:51:27.557Z,91.80
2017-08-21T08:53:53.594Z,91.60
2017-08-21T08:56:19.649Z,92.10
2017-08-21T08:58:45.690Z,92.80
2017-08-21T09:01:11.741Z,93.00
2017-08-21T09:03:37.777Z,93.20
2017-08-21T09:06:03.800Z,93.80
2017-08-21T09:08:29.826Z,94.10
2017-08-21T09:10:55.841Z,93.50
2017-08-21T09:13:21.877Z,93.90
2017-08-21T09:15:47.930Z,92.20
2017-08-21T09:18:13.962Z,93.20
2017-08-21T09:20:39.985Z,92.70
2017-08-21T09:23:06.008Z,91.40
2017-08-21T09:25:32.044Z,91.60
2017-08-21T09:27:58.058Z,91.80
2017-08-21T09:30:24.089Z,90.20
2017-08-21T09:32:50.101Z,91.20
2017-08-21T09:35:16.122Z,91.20
2017-08-21T09:37:42.145Z,92.50
2017-08-21T09:40:08.185Z,92.90
2017-08-21T09:42:34.221Z,94.10
2017-08-21T09:45:00.257Z,94.50
2017-08-21T09:47:26.293Z,96.20
2017-08-21T09:49:52.330Z,96.60
2017-08-21T09:52:18.354Z,96.60
2017-08-21T09:54:44.377Z,96.40
2017-08-21T09:57:10.405Z,96.60
2017-08-21T09:59:36.448Z,96.80
2017-08-21T10:02:02.493Z,96.50
2017-08-21T10:04:28.529Z,96.00
2017-08-21T10:06:54.593Z,96.20
2017-08-21T10:09:20.638Z,96.30
2017-08-21T10:11:46.665Z,96.30
2017-08-21T10:14:12.689Z,96.10
2017-08-21T10:16:38.732Z,96.00
2017-08-21T10:19:04.760Z,95.20
2017-08-21T10:21:30.802Z,93.20
2017-08-21T10:23:56.848Z,91.70
2017-08-21T10:26:22.885Z,92.80
2017-08-21T10:28:48.909Z,91.40
2017-08-21T10:31:14.952Z,90.70
2017-08-21T10:33:40.984Z,90.50
2017-08-21T10:36:07.025Z,90.20
2017-08-21T10:38:33.058Z,90.00
2017-08-21T10:40:59.098Z,89.20
2017-08-21T10:43:25.141Z,88.20
2017-08-21T10:45:51.213Z,88.00
2017-08-21T10:48:17.259Z,85.00
2017-08-21T10:50:43.323Z,89.20
2017-08-21T10:53:09.370Z,86.60
2017-08-21T10:55:35.420Z,82.40
2017-08-21T10:58:01.441Z,80.60
2017-08-21T11:10:18.649Z,82.80
2017-08-21T11:12:44.669Z,66.60
2017-08-21T11:15:10.709Z,64.10
2017-08-21T11:17:36.732Z,64.50
2017-08-21T11:20:02.745Z,63.40
2017-08-21T11:22:28.765Z,61.60
2017-08-21T11:24:54.810Z,65.60
2017-08-21T11:27:20.833Z,68.20
2017-08-21T11:29:46.857Z,65.20
2017-08-21T11:32:12.884Z,66.60
2017-08-21T11:34:38.913Z,68.40
2017-08-21T11:37:04.944Z,70.80
2017-08-21T11:39:30.968Z,69.70
2017-08-21T11:41:56.985Z,74.30
2017-08-21T11:44:23.018Z,75.20
2017-08-21T11:46:49.053Z,75.00
2017-08-21T11:49:15.222Z,71.10
2017-08-21T11:51:41.249Z,67.70
2017-08-21T11:54:07.280Z,70.90
2017-08-21T11:56:33.310Z,71.60
2017-08-21T11:58:59.337Z,67.90
2017-08-21T12:01:25.373Z,61.40
2017-08-21T12:03:51.401Z,61.90
2017-08-21T12:06:17.435Z,60.40
2017-08-21T12:08:43.477Z,59.70
2017-08-21T12:11:09.489Z,65.30
2017-08-21T12:13:35.532Z,62.10
2017-08-21T12:16:01.590Z,64.40
2017-08-21T12:18:27.621Z,59.80
2017-08-21T12:20:53.648Z,58.50
2017-08-21T12:23:19.695Z,60.70
2017-08-21T12:25:45.705Z,59.50
2017-08-21T12:28:11.733Z,57.00
2017-08-21T12:30:37.796Z,58.10
2017-08-21T12:33:03.844Z,56.00
2017-08-21T12:35:29.899Z,57.20
2017-08-21T12:37:55.916Z,57.60
2017-08-21T12:40:21.964Z,61.00
2017-08-21T12:42:47.985Z,62.60
2017-08-21T15:05:40.717Z,64.30
2017-08-21T15:08:06.737Z,61.40
2017-08-21T15:10:32.759Z,61.70
2017-08-21T15:12:58.800Z,64.70
2017-08-21T15:15:24.837Z,64.50
2017-08-21T15:17:50.870Z,65.70
2017-08-21T15:20:16.886Z,63.90
2017-08-21T15:22:42.913Z,63.40
2017-08-21T15:25:08.933Z,62.50
2017-08-21T15:27:34.969Z,59.30
2017-08-21T15:30:00.997Z,58.70
2017-08-21T15:32:27.073Z,57.00
2017-08-21T15:34:53.113Z,53.70
2017-08-21T15:37:19.137Z,53.80
2017-08-21T15:39:45.183Z,55.10
2017-08-21T15:42:11.194Z,55.50
2017-08-21T15:44:37.222Z,55.50
2017-08-21T15:47:03.274Z,56.10
2017-08-21T15:49:29.305Z,55.00
2017-08-21T15:51:55.341Z,56.50
2017-08-21T15:54:21.384Z,56.70
2017-08-21T15:56:47.417Z,56.80
2017-08-21T15:59:13.480Z,57.20
2017-08-21T16:01:39.506Z,57.50
2017-08-21T16:04:05.532Z,59.30
2017-08-21T16:06:31.567Z,59.20
2017-08-21T16:08:57.611Z,58.70
2017-08-21T16:11:23.648Z,56.90
2017-08-21T16:13:49.670Z,55.80
2017-08-21T16:16:15.719Z,57.70
2017-08-21T16:18:41.739Z,59.20
2017-08-21T16:21:07.797Z,59.50
2017-08-21T16:23:33.829Z,59.30
2017-08-21T16:25:59.861Z,59.30
2017-08-21T16:28:25.882Z,59.30
2017-08-21T16:30:51.914Z,59.40
2017-08-21T16:33:17.933Z,58.60
2017-08-21T16:35:43.973Z,59.80
2017-08-21T16:38:09.992Z,60.40
2017-08-21T16:40:36.013Z,58.30
2017-08-21T16:43:02.041Z,58.80
2017-08-21T16:45:28.065Z,60.20
2017-08-21T16:47:54.085Z,60.90
2017-08-21T16:50:20.126Z,57.80
2017-08-21T16:52:46.182Z,59.10
2017-08-21T16:55:12.225Z,59.10
2017-08-21T16:57:38.250Z,60.60
2017-08-21T17:00:04.285Z,61.20
2017-08-21T17:02:30.333Z,60.50
2017-08-21T17:04:56.365Z,60.90
2017-08-21T17:07:22.377Z,61.10
2017-08-21T17:09:48.397Z,61.60
2017-08-21T17:12:14.413Z,63.10
2017-08-21T17:14:40.445Z,62.70
2017-08-21T17:17:06.469Z,62.20
2017-08-21T17:19:32.500Z,62.90
2017-08-21T17:21:58.525Z,63.60
2017-08-21T17:24:24.549Z,61.80
2017-08-21T17:26:50.529Z,62.60
2017-08-21T17:29:16.505Z,63.10
2017-08-21T17:31:42.516Z,63.20
2017-08-21T17:34:08.542Z,63.80
2017-08-21T17:36:34.560Z,64.90
2017-08-21T17:39:00.595Z,65.70
2017-08-21T17:41:26.628Z,65.20
2017-08-21T17:43:52.653Z,65.70
2017-08-21T17:46:18.678Z,66.10
2017-08-21T17:48:44.714Z,66.40
2017-08-21T17:51:10.733Z,67.00
2017-08-21T17:53:36.750Z,68.50
2017-08-21T17:56:02.788Z,68.60
2017-08-21T17:58:28.832Z,68.20
2017-08-21T18:00:54.870Z,68.90
2017-08-21T18:03:20.965Z,67.30
2017-08-21T18:05:47.013Z,68.70
2017-08-21T18:08:13.037Z,69.00
2017-08-21T18:10:39.061Z,70.00
2017-08-21T18:13:05.074Z,69.50
2017-08-21T18:15:31.114Z,70.50
2017-08-21T18:17:57.136Z,70.30
2017-08-21T18:20:23.189Z,72.00
2017-08-21T18:22:49.224Z,72.00
2017-08-21T18:25:15.242Z,72.10
2017-08-21T18:27:41.291Z,71.70
2017-08-21T18:30:07.322Z,72.10
2017-08-21T18:32:33.370Z,72.30
2017-08-21T18:34:59.385Z,73.00
2017-08-21T18:37:25.434Z,72.50
2017-08-21T18:39:51.456Z,73.30
2017-08-21T18:42:17.517Z,73.20
2017-08-21T18:44:43.542Z,73.10
2017-08-21T18:47:09.585Z,74.80
2017-08-21T18:49:35.605Z,74.00
2017-08-21T18:52:01.639Z,74.30
2017-08-21T18:54:27.661Z,74.50
2017-08-21T18:56:53.721Z,75.00
2017-08-21T18:59:19.769Z,74.60
2017-08-21T19:01:46.524Z,76.00
2017-08-21T19:04:12.558Z,75.40
2017-08-21T19:06:38.568Z,75.30
2017-08-21T19:09:04.592Z,76.40
2017-08-21T19:11:30.622Z,77.00
2017-08-21T19:13:56.665Z,77.20
2017-08-21T19:16:22.676Z,77.30
2017-08-21T19:18:48.713Z,77.40
2017-08-21T19:21:14.740Z,78.30
2017-08-21T19:23:40.783Z,78.60
2017-08-21T19:26:06.832Z,78.20
2017-08-21T19:28:32.853Z,78.80
2017-08-21T19:30:58.875Z,77.90
2017-08-21T19:33:24.981Z,78.30
2017-08-21T19:35:51.010Z,78.70
2017-08-21T19:38:17.034Z,78.60
2017-08-21T19:40:43.074Z,78.90
2017-08-21T19:43:09.124Z,79.10
2017-08-21T19:45:35.167Z,79.20
2017-08-21T19:48:01.285Z,79.40
2017-08-21T19:50:27.322Z,79.80
2017-08-21T19:52:53.348Z,80.10
2017-08-21T19:55:19.418Z,79.60
2017-08-21T19:57:45.508Z,80.30
2017-08-21T20:00:11.596Z,80.30
2017-08-21T20:02:37.681Z,80.80
2017-08-21T20:05:03.755Z,81.70
2017-08-21T20:07:29.831Z,81.70
2017-08-21T20:09:55.936Z,82.40
2017-08-21T20:12:22.099Z,81.70
2017-08-21T20:14:48.158Z,82.00
2017-08-21T20:17:14.225Z,82.30
2017-08-21T20:19:40.284Z,81.90
2017-08-21T20:22:07.382Z,82.30
2017-08-21T20:24:33.502Z,82.50
2017-08-21T20:26:59.584Z,84.10
2017-08-21T20:29:25.660Z,83.00
2017-08-21T20:31:51.698Z,83.70
2017-08-21T20:34:17.726Z,84.20
2017-08-21T20:36:43.791Z,84.00
2017-08-21T20:39:09.865Z,84.70
2017-08-21T20:41:35.877Z,84.30
2017-08-21T20:44:01.901Z,84.60
2017-08-21T20:46:27.925Z,84.70
2017-08-21T20:48:53.949Z,84.60
2017-08-21T20:51:19.965Z,85.60
2017-08-21T20:53:46.003Z,85.10
2017-08-21T20:56:12.012Z,85.30
2017-08-21T20:58:38.045Z,85.20
2017-08-21T21:01:04.062Z,85.90
2017-08-21T21:03:30.101Z,86.40
2017-08-21T21:05:56.117Z,86.40
2017-08-21T21:08:22.162Z,87.00
2017-08-21T21:10:48.194Z,86.50
2017-08-21T21:13:14.221Z,87.10
2017-08-21T21:15:40.253Z,87.00
2017-08-21T21:18:06.277Z,87.00
2017-08-21T21:20:32.296Z,87.40
2017-08-21T21:22:58.316Z,87.50
2017-08-21T21:25:25.363Z,87.70
2017-08-21T21:27:51.443Z,88.20
2017-08-21T21:30:17.501Z,88.80
2017-08-21T21:32:43.537Z,88.50
2017-08-21T21:35:09.702Z,88.90
2017-08-21T21:37:35.713Z,89.00
2017-08-21T21:40:01.738Z,88.80
2017-08-21T21:42:27.756Z,88.90
2017-08-21T21:44:53.776Z,88.80
2017-08-21T21:47:19.793Z,88.20
2017-08-21T21:49:45.806Z,88.70
2017-08-21T21:52:11.837Z,88.90
2017-08-21T21:54:37.860Z,89.00
2017-08-21T21:57:03.897Z,89.00
2017-08-21T21:59:29.925Z,89.80
2017-08-21T22:01:55.953Z,89.60
2017-08-21T22:04:21.972Z,89.30
2017-08-21T22:06:47.997Z,89.10
2017-08-21T22:09:14.252Z,89.80
2017-08-21T22:11:40.289Z,90.00
2017-08-21T22:14:06.305Z,90.30
2017-08-21T22:16:32.333Z,89.50
2017-08-21T22:18:58.349Z,89.90
2017-08-21T22:21:24.389Z,89.70
2017-08-21T22:23:50.418Z,90.10
2017-08-21T22:26:16.463Z,90.10
2017-08-21T22:28:42.488Z,89.40
2017-08-21T22:31:08.521Z,90.00
2017-08-21T22:33:34.549Z,89.80
2017-08-21T22:36:00.564Z,90.10
2017-08-21T22:38:26.585Z,89.20
2017-08-21T22:40:52.609Z,90.00
2017-08-21T22:43:18.633Z,89.80
2017-08-21T22:45:44.658Z,89.30
2017-08-21T22:48:10.683Z,90.00
2017-08-21T22:50:36.694Z,89.50
2017-08-21T22:53:02.752Z,89.50
2017-08-21T22:55:28.777Z,90.10
2017-08-21T22:57:54.817Z,89.60
2017-08-21T23:00:20.841Z,90.10
2017-08-21T23:02:46.892Z,89.30
2017-08-21T23:05:12.941Z,89.50
2017-08-21T23:07:38.969Z,88.80
2017-08-21T23:10:05.029Z,88.80
2017-08-21T23:12:31.066Z,89.20
2017-08-21T23:14:57.097Z,89.70
2017-08-21T23:17:23.217Z,89.80
2017-08-21T23:19:49.260Z,90.00
2017-08-21T23:22:15.269Z,89.80
2017-08-21T23:24:41.310Z,89.70
2017-08-21T23:27:07.329Z,90.00
2017-08-21T23:29:33.346Z,90.00
2017-08-21T23:31:59.433Z,90.20
2017-08-21T23:34:25.455Z,90.30
2017-08-21T23:36:51.501Z,90.40
2017-08-21T23:39:17.536Z,90.50
2017-08-21T23:41:43.569Z,90.60
2017-08-21T23:44:09.581Z,90.60
2017-08-21T23:46:35.597Z,90.60
2017-08-21T23:49:01.612Z,90.60
2017-08-21T23:51:27.640Z,90.70
2017-08-21T23:54:26.311Z,90.90
2017-08-21T23:56:52.349Z,90.80
2017-08-21T23:59:18.365Z,90.90
